sensor_id;sensor_type;location;lat;lon;timestamp;P1;durP1;ratioP1;P2;durP2;ratioP2
60588;SDS011;46421;48.610;9.334;2023-12-29T00:00:32;2.60;;;0.88;;
60588;SDS011;46421;48.610;9.334;2023-12-29T00:02:58;2.42;;;0.77;;
60588;SDS011;46421;48.610;9.334;2023-12-29T00:05:23;3.05;;;0.90;;
60588;SDS011;46421;48.610;9.334;2023-12-29T00:07:48;3.22;;;1.15;;
60588;SDS011;46421;48.610;9.334;2023-12-29T00:10:14;2.30;;;0.87;;
60588;SDS011;46421;48.610;9.334;2023-12-29T00:12:39;3.93;;;0.87;;
60588;SDS011;46421;48.610;9.334;2023-12-29T00:15:05;2.85;;;1.00;;
60588;SDS011;46421;48.610;9.334;2023-12-29T00:17:30;5.10;;;1.10;;
60588;SDS011;46421;48.610;9.334;2023-12-29T00:19:57;1.75;;;0.68;;
60588;SDS011;46421;48.610;9.334;2023-12-29T00:22:22;3.00;;;1.02;;
60588;SDS011;46421;48.610;9.334;2023-12-29T00:24:49;5.32;;;1.17;;
60588;SDS011;46421;48.610;9.334;2023-12-29T00:27:14;2.50;;;1.00;;
60588;SDS011;46421;48.610;9.334;2023-12-29T00:29:39;2.80;;;0.82;;
60588;SDS011;46421;48.610;9.334;2023-12-29T00:32:05;3.33;;;0.87;;
60588;SDS011;46421;48.610;9.334;2023-12-29T00:34:30;1.45;;;0.63;;
60588;SDS011;46421;48.610;9.334;2023-12-29T00:36:55;3.53;;;0.90;;
60588;SDS011;46421;48.610;9.334;2023-12-29T00:39:21;2.88;;;1.08;;
60588;SDS011;46421;48.610;9.334;2023-12-29T00:41:53;3.40;;;1.20;;
60588;SDS011;46421;48.610;9.334;2023-12-29T00:44:20;2.03;;;0.93;;
60588;SDS011;46421;48.610;9.334;2023-12-29T00:46:45;1.90;;;0.77;;
60588;SDS011;46421;48.610;9.334;2023-12-29T00:49:10;3.97;;;1.20;;
60588;SDS011;46421;48.610;9.334;2023-12-29T00:51:39;3.00;;;1.10;;
60588;SDS011;46421;48.610;9.334;2023-12-29T00:54:06;3.17;;;1.30;;
60588;SDS011;46421;48.610;9.334;2023-12-29T00:56:31;1.88;;;0.75;;
60588;SDS011;46421;48.610;9.334;2023-12-29T00:58:57;2.47;;;1.00;;
60588;SDS011;46421;48.610;9.334;2023-12-29T01:01:22;3.63;;;1.10;;
60588;SDS011;46421;48.610;9.334;2023-12-29T01:03:47;3.93;;;1.30;;
60588;SDS011;46421;48.610;9.334;2023-12-29T01:06:13;1.77;;;0.80;;
60588;SDS011;46421;48.610;9.334;2023-12-29T01:08:38;2.60;;;0.90;;
60588;SDS011;46421;48.610;9.334;2023-12-29T01:11:03;3.42;;;1.33;;
60588;SDS011;46421;48.610;9.334;2023-12-29T01:13:29;2.88;;;1.17;;
60588;SDS011;46421;48.610;9.334;2023-12-29T01:15:54;2.53;;;1.10;;
60588;SDS011;46421;48.610;9.334;2023-12-29T01:18:19;4.75;;;1.20;;
60588;SDS011;46421;48.610;9.334;2023-12-29T01:20:45;2.67;;;0.98;;
60588;SDS011;46421;48.610;9.334;2023-12-29T01:23:10;3.53;;;1.40;;
60588;SDS011;46421;48.610;9.334;2023-12-29T01:25:36;2.85;;;1.02;;
60588;SDS011;46421;48.610;9.334;2023-12-29T01:28:01;3.10;;;1.13;;
60588;SDS011;46421;48.610;9.334;2023-12-29T01:30:26;3.22;;;1.25;;
60588;SDS011;46421;48.610;9.334;2023-12-29T01:32:52;3.67;;;1.30;;
60588;SDS011;46421;48.610;9.334;2023-12-29T01:35:17;4.22;;;1.25;;
60588;SDS011;46421;48.610;9.334;2023-12-29T01:37:42;3.97;;;1.30;;
60588;SDS011;46421;48.610;9.334;2023-12-29T01:40:08;2.67;;;1.15;;
60588;SDS011;46421;48.610;9.334;2023-12-29T01:42:33;1.90;;;0.90;;
60588;SDS011;46421;48.610;9.334;2023-12-29T01:44:59;2.03;;;1.10;;
60588;SDS011;46421;48.610;9.334;2023-12-29T01:47:24;3.47;;;1.10;;
60588;SDS011;46421;48.610;9.334;2023-12-29T01:49:49;3.85;;;1.27;;
60588;SDS011;46421;48.610;9.334;2023-12-29T01:52:16;3.65;;;1.33;;
60588;SDS011;46421;48.610;9.334;2023-12-29T01:54:41;2.42;;;1.00;;
60588;SDS011;46421;48.610;9.334;2023-12-29T01:57:08;3.13;;;1.15;;
60588;SDS011;46421;48.610;9.334;2023-12-29T01:59:33;3.35;;;1.23;;
60588;SDS011;46421;48.610;9.334;2023-12-29T02:01:59;3.10;;;1.20;;
60588;SDS011;46421;48.610;9.334;2023-12-29T02:04:26;4.28;;;1.40;;
60588;SDS011;46421;48.610;9.334;2023-12-29T02:06:52;3.80;;;1.85;;
60588;SDS011;46421;48.610;9.334;2023-12-29T02:09:18;2.58;;;1.08;;
60588;SDS011;46421;48.610;9.334;2023-12-29T02:11:44;3.80;;;1.40;;
60588;SDS011;46421;48.610;9.334;2023-12-29T02:14:10;3.20;;;1.00;;
60588;SDS011;46421;48.610;9.334;2023-12-29T02:16:38;3.42;;;1.38;;
60588;SDS011;46421;48.610;9.334;2023-12-29T02:19:12;3.92;;;1.58;;
60588;SDS011;46421;48.610;9.334;2023-12-29T02:21:42;3.58;;;1.40;;
60588;SDS011;46421;48.610;9.334;2023-12-29T02:24:08;5.00;;;1.50;;
60588;SDS011;46421;48.610;9.334;2023-12-29T02:26:33;4.13;;;1.60;;
60588;SDS011;46421;48.610;9.334;2023-12-29T02:29:01;3.78;;;1.23;;
60588;SDS011;46421;48.610;9.334;2023-12-29T02:31:27;4.60;;;1.13;;
60588;SDS011;46421;48.610;9.334;2023-12-29T02:33:55;3.22;;;1.30;;
60588;SDS011;46421;48.610;9.334;2023-12-29T02:36:21;5.07;;;1.67;;
60588;SDS011;46421;48.610;9.334;2023-12-29T02:38:47;3.15;;;1.25;;
60588;SDS011;46421;48.610;9.334;2023-12-29T02:41:12;4.63;;;1.33;;
60588;SDS011;46421;48.610;9.334;2023-12-29T02:43:38;5.30;;;1.58;;
60588;SDS011;46421;48.610;9.334;2023-12-29T02:46:03;3.20;;;1.20;;
60588;SDS011;46421;48.610;9.334;2023-12-29T02:48:29;4.95;;;1.40;;
60588;SDS011;46421;48.610;9.334;2023-12-29T02:50:54;3.15;;;1.35;;
60588;SDS011;46421;48.610;9.334;2023-12-29T02:53:20;3.97;;;1.60;;
60588;SDS011;46421;48.610;9.334;2023-12-29T02:55:45;3.42;;;1.20;;
60588;SDS011;46421;48.610;9.334;2023-12-29T02:58:10;3.55;;;1.40;;
60588;SDS011;46421;48.610;9.334;2023-12-29T03:00:36;5.05;;;1.33;;
60588;SDS011;46421;48.610;9.334;2023-12-29T03:03:01;3.80;;;1.40;;
60588;SDS011;46421;48.610;9.334;2023-12-29T03:05:27;3.28;;;1.30;;
60588;SDS011;46421;48.610;9.334;2023-12-29T03:07:52;3.20;;;1.17;;
60588;SDS011;46421;48.610;9.334;2023-12-29T03:10:17;3.58;;;1.30;;
60588;SDS011;46421;48.610;9.334;2023-12-29T03:12:43;3.38;;;1.40;;
60588;SDS011;46421;48.610;9.334;2023-12-29T03:15:09;3.58;;;1.50;;
60588;SDS011;46421;48.610;9.334;2023-12-29T03:17:34;2.83;;;1.20;;
60588;SDS011;46421;48.610;9.334;2023-12-29T03:20:00;3.55;;;1.23;;
60588;SDS011;46421;48.610;9.334;2023-12-29T03:22:27;4.40;;;1.20;;
60588;SDS011;46421;48.610;9.334;2023-12-29T03:24:52;3.25;;;1.15;;
60588;SDS011;46421;48.610;9.334;2023-12-29T03:27:18;3.53;;;1.33;;
60588;SDS011;46421;48.610;9.334;2023-12-29T03:29:43;2.30;;;1.17;;
60588;SDS011;46421;48.610;9.334;2023-12-29T03:32:08;2.93;;;1.20;;
60588;SDS011;46421;48.610;9.334;2023-12-29T03:34:34;2.65;;;1.10;;
60588;SDS011;46421;48.610;9.334;2023-12-29T03:36:59;3.33;;;1.20;;
60588;SDS011;46421;48.610;9.334;2023-12-29T03:39:24;3.47;;;1.30;;
60588;SDS011;46421;48.610;9.334;2023-12-29T03:41:50;3.17;;;1.15;;
60588;SDS011;46421;48.610;9.334;2023-12-29T03:44:15;1.70;;;0.82;;
60588;SDS011;46421;48.610;9.334;2023-12-29T03:46:42;3.45;;;1.20;;
60588;SDS011;46421;48.610;9.334;2023-12-29T03:49:08;2.50;;;1.17;;
60588;SDS011;46421;48.610;9.334;2023-12-29T03:51:34;2.75;;;1.23;;
60588;SDS011;46421;48.610;9.334;2023-12-29T03:53:59;2.65;;;1.10;;
60588;SDS011;46421;48.610;9.334;2023-12-29T03:56:26;2.83;;;1.00;;
60588;SDS011;46421;48.610;9.334;2023-12-29T03:58:51;5.18;;;1.30;;
60588;SDS011;46421;48.610;9.334;2023-12-29T04:01:16;2.30;;;1.00;;
60588;SDS011;46421;48.610;9.334;2023-12-29T04:03:42;3.03;;;1.10;;
60588;SDS011;46421;48.610;9.334;2023-12-29T04:06:08;2.65;;;1.17;;
60588;SDS011;46421;48.610;9.334;2023-12-29T04:08:34;4.32;;;1.33;;
60588;SDS011;46421;48.610;9.334;2023-12-29T04:11:00;2.80;;;1.10;;
60588;SDS011;46421;48.610;9.334;2023-12-29T04:13:26;5.18;;;1.40;;
60588;SDS011;46421;48.610;9.334;2023-12-29T04:15:51;4.38;;;1.13;;
60588;SDS011;46421;48.610;9.334;2023-12-29T04:18:17;6.07;;;1.23;;
60588;SDS011;46421;48.610;9.334;2023-12-29T04:20:42;2.97;;;0.85;;
60588;SDS011;46421;48.610;9.334;2023-12-29T04:23:08;3.17;;;1.17;;
60588;SDS011;46421;48.610;9.334;2023-12-29T04:25:34;2.33;;;1.00;;
60588;SDS011;46421;48.610;9.334;2023-12-29T04:27:59;2.75;;;1.00;;
60588;SDS011;46421;48.610;9.334;2023-12-29T04:30:24;3.60;;;1.23;;
60588;SDS011;46421;48.610;9.334;2023-12-29T04:32:50;3.30;;;1.00;;
60588;SDS011;46421;48.610;9.334;2023-12-29T04:35:15;3.97;;;1.23;;
60588;SDS011;46421;48.610;9.334;2023-12-29T04:37:42;2.15;;;0.88;;
60588;SDS011;46421;48.610;9.334;2023-12-29T04:40:09;2.88;;;0.90;;
60588;SDS011;46421;48.610;9.334;2023-12-29T04:42:34;3.40;;;1.20;;
60588;SDS011;46421;48.610;9.334;2023-12-29T04:45:00;3.15;;;1.10;;
60588;SDS011;46421;48.610;9.334;2023-12-29T04:47:25;2.63;;;1.10;;
60588;SDS011;46421;48.610;9.334;2023-12-29T04:49:50;3.20;;;1.00;;
60588;SDS011;46421;48.610;9.334;2023-12-29T04:52:16;2.22;;;1.00;;
60588;SDS011;46421;48.610;9.334;2023-12-29T04:54:41;2.53;;;1.07;;
60588;SDS011;46421;48.610;9.334;2023-12-29T04:57:06;2.67;;;1.10;;
60588;SDS011;46421;48.610;9.334;2023-12-29T04:59:32;4.10;;;1.40;;
60588;SDS011;46421;48.610;9.334;2023-12-29T05:01:57;3.43;;;1.13;;
60588;SDS011;46421;48.610;9.334;2023-12-29T05:04:23;2.17;;;0.90;;
60588;SDS011;46421;48.610;9.334;2023-12-29T05:06:48;2.63;;;1.08;;
60588;SDS011;46421;48.610;9.334;2023-12-29T05:09:13;3.08;;;1.17;;
60588;SDS011;46421;48.610;9.334;2023-12-29T05:11:39;2.30;;;0.97;;
60588;SDS011;46421;48.610;9.334;2023-12-29T05:14:05;4.60;;;1.30;;
60588;SDS011;46421;48.610;9.334;2023-12-29T05:16:30;2.90;;;1.10;;
60588;SDS011;46421;48.610;9.334;2023-12-29T05:18:55;3.80;;;1.65;;
60588;SDS011;46421;48.610;9.334;2023-12-29T05:21:21;3.83;;;1.40;;
60588;SDS011;46421;48.610;9.334;2023-12-29T05:23:47;2.70;;;1.02;;
60588;SDS011;46421;48.610;9.334;2023-12-29T05:26:13;3.28;;;1.10;;
60588;SDS011;46421;48.610;9.334;2023-12-29T05:28:39;3.55;;;1.25;;
60588;SDS011;46421;48.610;9.334;2023-12-29T05:31:05;3.97;;;1.02;;
60588;SDS011;46421;48.610;9.334;2023-12-29T05:33:30;2.25;;;1.08;;
60588;SDS011;46421;48.610;9.334;2023-12-29T05:35:58;3.25;;;1.38;;
60588;SDS011;46421;48.610;9.334;2023-12-29T05:38:25;3.92;;;1.20;;
60588;SDS011;46421;48.610;9.334;2023-12-29T05:40:50;3.33;;;1.30;;
60588;SDS011;46421;48.610;9.334;2023-12-29T05:43:16;3.30;;;1.30;;
60588;SDS011;46421;48.610;9.334;2023-12-29T05:45:42;4.75;;;1.25;;
60588;SDS011;46421;48.610;9.334;2023-12-29T05:48:08;3.33;;;1.10;;
60588;SDS011;46421;48.610;9.334;2023-12-29T05:50:33;2.80;;;1.20;;
60588;SDS011;46421;48.610;9.334;2023-12-29T05:52:58;2.60;;;1.10;;
60588;SDS011;46421;48.610;9.334;2023-12-29T05:55:24;3.40;;;1.50;;
60588;SDS011;46421;48.610;9.334;2023-12-29T05:57:49;3.27;;;1.03;;
60588;SDS011;46421;48.610;9.334;2023-12-29T06:00:14;3.03;;;1.38;;
60588;SDS011;46421;48.610;9.334;2023-12-29T06:02:40;2.67;;;0.90;;
60588;SDS011;46421;48.610;9.334;2023-12-29T06:05:07;2.53;;;1.10;;
60588;SDS011;46421;48.610;9.334;2023-12-29T06:07:33;3.42;;;1.38;;
60588;SDS011;46421;48.610;9.334;2023-12-29T06:09:58;3.05;;;1.15;;
60588;SDS011;46421;48.610;9.334;2023-12-29T06:12:24;2.92;;;1.05;;
60588;SDS011;46421;48.610;9.334;2023-12-29T06:14:49;4.63;;;1.25;;
60588;SDS011;46421;48.610;9.334;2023-12-29T06:17:15;2.58;;;1.00;;
60588;SDS011;46421;48.610;9.334;2023-12-29T06:19:40;3.55;;;1.17;;
60588;SDS011;46421;48.610;9.334;2023-12-29T06:22:06;3.35;;;1.05;;
60588;SDS011;46421;48.610;9.334;2023-12-29T06:24:36;2.38;;;1.05;;
60588;SDS011;46421;48.610;9.334;2023-12-29T06:27:02;5.07;;;1.35;;
60588;SDS011;46421;48.610;9.334;2023-12-29T06:29:27;2.53;;;0.90;;
60588;SDS011;46421;48.610;9.334;2023-12-29T06:31:53;2.88;;;1.00;;
60588;SDS011;46421;48.610;9.334;2023-12-29T06:34:18;3.83;;;1.20;;
60588;SDS011;46421;48.610;9.334;2023-12-29T06:36:43;3.22;;;1.33;;
60588;SDS011;46421;48.610;9.334;2023-12-29T06:39:09;3.25;;;1.20;;
60588;SDS011;46421;48.610;9.334;2023-12-29T06:41:34;3.03;;;1.38;;
60588;SDS011;46421;48.610;9.334;2023-12-29T06:44:00;4.28;;;1.10;;
60588;SDS011;46421;48.610;9.334;2023-12-29T06:46:25;6.38;;;1.33;;
60588;SDS011;46421;48.610;9.334;2023-12-29T06:48:51;2.03;;;1.00;;
60588;SDS011;46421;48.610;9.334;2023-12-29T06:51:17;2.70;;;0.80;;
60588;SDS011;46421;48.610;9.334;2023-12-29T06:53:43;2.53;;;1.00;;
60588;SDS011;46421;48.610;9.334;2023-12-29T06:56:14;3.15;;;1.10;;
60588;SDS011;46421;48.610;9.334;2023-12-29T06:58:40;2.55;;;1.05;;
60588;SDS011;46421;48.610;9.334;2023-12-29T07:01:06;2.13;;;1.15;;
60588;SDS011;46421;48.610;9.334;2023-12-29T07:03:31;3.40;;;1.13;;
60588;SDS011;46421;48.610;9.334;2023-12-29T07:05:56;3.83;;;1.70;;
60588;SDS011;46421;48.610;9.334;2023-12-29T07:08:24;3.10;;;1.45;;
60588;SDS011;46421;48.610;9.334;2023-12-29T07:10:59;3.40;;;1.73;;
60588;SDS011;46421;48.610;9.334;2023-12-29T07:13:28;2.70;;;1.17;;
60588;SDS011;46421;48.610;9.334;2023-12-29T07:16:01;3.72;;;1.38;;
60588;SDS011;46421;48.610;9.334;2023-12-29T07:25:01;2.33;;;1.13;;
60588;SDS011;46421;48.610;9.334;2023-12-29T07:27:37;2.65;;;1.10;;
60588;SDS011;46421;48.610;9.334;2023-12-29T07:37:12;3.30;;;1.50;;
60588;SDS011;46421;48.610;9.334;2023-12-29T07:40:41;2.65;;;1.30;;
60588;SDS011;46421;48.610;9.334;2023-12-29T07:43:18;3.30;;;1.60;;
60588;SDS011;46421;48.610;9.334;2023-12-29T07:52:15;4.38;;;1.50;;
60588;SDS011;46421;48.610;9.334;2023-12-29T07:54:44;3.80;;;1.33;;
60588;SDS011;46421;48.610;9.334;2023-12-29T08:01:05;4.00;;;1.40;;
60588;SDS011;46421;48.610;9.334;2023-12-29T08:03:31;3.53;;;1.33;;
60588;SDS011;46421;48.610;9.334;2023-12-29T08:06:08;2.80;;;1.52;;
60588;SDS011;46421;48.610;9.334;2023-12-29T08:08:49;3.05;;;1.10;;
60588;SDS011;46421;48.610;9.334;2023-12-29T08:14:32;2.03;;;1.15;;
60588;SDS011;46421;48.610;9.334;2023-12-29T08:17:12;3.13;;;1.38;;
60588;SDS011;46421;48.610;9.334;2023-12-29T08:28:42;2.92;;;1.30;;
60588;SDS011;46421;48.610;9.334;2023-12-29T08:31:37;2.85;;;1.35;;
60588;SDS011;46421;48.610;9.334;2023-12-29T08:34:14;5.05;;;1.52;;
60588;SDS011;46421;48.610;9.334;2023-12-29T08:36:43;2.60;;;1.00;;
60588;SDS011;46421;48.610;9.334;2023-12-29T08:39:09;2.60;;;1.30;;
60588;SDS011;46421;48.610;9.334;2023-12-29T08:41:38;2.67;;;1.23;;
60588;SDS011;46421;48.610;9.334;2023-12-29T08:44:21;4.70;;;1.20;;
60588;SDS011;46421;48.610;9.334;2023-12-29T08:46:49;3.00;;;1.30;;
60588;SDS011;46421;48.610;9.334;2023-12-29T08:49:33;3.13;;;1.20;;
60588;SDS011;46421;48.610;9.334;2023-12-29T09:01:17;2.47;;;1.20;;
60588;SDS011;46421;48.610;9.334;2023-12-29T09:03:56;2.47;;;1.20;;
60588;SDS011;46421;48.610;9.334;2023-12-29T09:07:17;2.58;;;1.38;;
60588;SDS011;46421;48.610;9.334;2023-12-29T09:09:49;2.67;;;1.10;;
60588;SDS011;46421;48.610;9.334;2023-12-29T09:12:14;3.85;;;1.33;;
60588;SDS011;46421;48.610;9.334;2023-12-29T09:14:40;3.35;;;1.33;;
60588;SDS011;46421;48.610;9.334;2023-12-29T09:20:20;1.75;;;1.20;;
60588;SDS011;46421;48.610;9.334;2023-12-29T09:22:45;2.35;;;0.98;;
60588;SDS011;46421;48.610;9.334;2023-12-29T09:31:33;2.60;;;1.30;;
60588;SDS011;46421;48.610;9.334;2023-12-29T09:34:29;1.58;;;1.20;;
60588;SDS011;46421;48.610;9.334;2023-12-29T09:40:30;2.33;;;1.15;;
60588;SDS011;46421;48.610;9.334;2023-12-29T09:43:23;1.25;;;0.90;;
60588;SDS011;46421;48.610;9.334;2023-12-29T09:45:52;2.50;;;1.02;;
60588;SDS011;46421;48.610;9.334;2023-12-29T09:48:17;2.55;;;1.10;;
60588;SDS011;46421;48.610;9.334;2023-12-29T09:51:05;2.30;;;0.80;;
60588;SDS011;46421;48.610;9.334;2023-12-29T09:53:32;2.90;;;0.80;;
60588;SDS011;46421;48.610;9.334;2023-12-29T09:55:58;1.58;;;0.80;;
60588;SDS011;46421;48.610;9.334;2023-12-29T09:58:25;4.88;;;0.80;;
60588;SDS011;46421;48.610;9.334;2023-12-29T10:00:50;2.22;;;0.82;;
60588;SDS011;46421;48.610;9.334;2023-12-29T10:03:16;1.98;;;0.90;;
60588;SDS011;46421;48.610;9.334;2023-12-29T10:05:42;2.70;;;0.85;;
60588;SDS011;46421;48.610;9.334;2023-12-29T10:08:09;2.95;;;0.90;;
60588;SDS011;46421;48.610;9.334;2023-12-29T10:10:35;2.13;;;0.90;;
60588;SDS011;46421;48.610;9.334;2023-12-29T10:13:01;3.88;;;1.13;;
60588;SDS011;46421;48.610;9.334;2023-12-29T10:15:34;1.70;;;0.60;;
60588;SDS011;46421;48.610;9.334;2023-12-29T10:18:14;1.23;;;0.60;;
60588;SDS011;46421;48.610;9.334;2023-12-29T10:23:58;1.75;;;0.63;;
60588;SDS011;46421;48.610;9.334;2023-12-29T10:26:38;1.65;;;0.60;;
60588;SDS011;46421;48.610;9.334;2023-12-29T10:29:04;0.98;;;0.60;;
60588;SDS011;46421;48.610;9.334;2023-12-29T10:31:30;1.13;;;0.50;;
60588;SDS011;46421;48.610;9.334;2023-12-29T10:36:48;1.45;;;0.68;;
60588;SDS011;46421;48.610;9.334;2023-12-29T10:39:14;1.90;;;0.60;;
60588;SDS011;46421;48.610;9.334;2023-12-29T10:41:40;1.50;;;0.70;;
60588;SDS011;46421;48.610;9.334;2023-12-29T10:44:08;3.20;;;0.80;;
60588;SDS011;46421;48.610;9.334;2023-12-29T10:46:33;4.25;;;0.90;;
60588;SDS011;46421;48.610;9.334;2023-12-29T10:49:06;1.20;;;0.60;;
60588;SDS011;46421;48.610;9.334;2023-12-29T10:51:33;1.50;;;0.60;;
60588;SDS011;46421;48.610;9.334;2023-12-29T10:53:58;1.10;;;0.50;;
60588;SDS011;46421;48.610;9.334;2023-12-29T10:56:24;1.48;;;0.60;;
60588;SDS011;46421;48.610;9.334;2023-12-29T10:58:59;1.42;;;0.57;;
60588;SDS011;46421;48.610;9.334;2023-12-29T11:01:31;1.88;;;0.60;;
60588;SDS011;46421;48.610;9.334;2023-12-29T11:03:58;1.42;;;0.70;;
60588;SDS011;46421;48.610;9.334;2023-12-29T11:06:25;2.05;;;0.70;;
60588;SDS011;46421;48.610;9.334;2023-12-29T11:08:51;1.35;;;0.60;;
60588;SDS011;46421;48.610;9.334;2023-12-29T11:11:17;1.30;;;0.60;;
60588;SDS011;46421;48.610;9.334;2023-12-29T11:13:42;2.85;;;0.70;;
60588;SDS011;46421;48.610;9.334;2023-12-29T11:16:08;1.85;;;0.60;;
60588;SDS011;46421;48.610;9.334;2023-12-29T11:18:34;1.40;;;0.50;;
60588;SDS011;46421;48.610;9.334;2023-12-29T11:20:59;1.88;;;0.88;;
60588;SDS011;46421;48.610;9.334;2023-12-29T11:23:25;1.42;;;0.70;;
60588;SDS011;46421;48.610;9.334;2023-12-29T11:25:50;1.10;;;0.70;;
60588;SDS011;46421;48.610;9.334;2023-12-29T11:28:17;1.75;;;0.77;;
60588;SDS011;46421;48.610;9.334;2023-12-29T11:30:43;0.98;;;0.63;;
60588;SDS011;46421;48.610;9.334;2023-12-29T11:33:18;4.03;;;1.13;;
60588;SDS011;46421;48.610;9.334;2023-12-29T11:35:48;2.22;;;0.80;;
60588;SDS011;46421;48.610;9.334;2023-12-29T11:44:00;0.68;;;0.30;;
60588;SDS011;46421;48.610;9.334;2023-12-29T11:46:37;0.95;;;0.50;;
60588;SDS011;46421;48.610;9.334;2023-12-29T11:49:03;1.38;;;0.60;;
60588;SDS011;46421;48.610;9.334;2023-12-29T11:51:33;1.35;;;0.65;;
60588;SDS011;46421;48.610;9.334;2023-12-29T11:54:05;1.27;;;0.55;;
60588;SDS011;46421;48.610;9.334;2023-12-29T11:56:38;1.58;;;0.60;;
60588;SDS011;46421;48.610;9.334;2023-12-29T11:59:21;1.60;;;0.68;;
60588;SDS011;46421;48.610;9.334;2023-12-29T12:01:49;1.55;;;0.60;;
60588;SDS011;46421;48.610;9.334;2023-12-29T12:04:38;1.27;;;0.60;;
60588;SDS011;46421;48.610;9.334;2023-12-29T12:07:17;1.27;;;0.63;;
60588;SDS011;46421;48.610;9.334;2023-12-29T12:12:47;1.55;;;0.77;;
60588;SDS011;46421;48.610;9.334;2023-12-29T12:17:54;1.15;;;0.43;;
60588;SDS011;46421;48.610;9.334;2023-12-29T12:20:20;1.55;;;0.70;;
60588;SDS011;46421;48.610;9.334;2023-12-29T12:22:46;0.88;;;0.65;;
60588;SDS011;46421;48.610;9.334;2023-12-29T12:25:16;2.83;;;0.88;;
60588;SDS011;46421;48.610;9.334;2023-12-29T12:27:42;2.15;;;0.70;;
60588;SDS011;46421;48.610;9.334;2023-12-29T12:30:07;1.65;;;0.57;;
60588;SDS011;46421;48.610;9.334;2023-12-29T12:32:35;2.22;;;0.60;;
60588;SDS011;46421;48.610;9.334;2023-12-29T12:35:00;1.77;;;0.50;;
60588;SDS011;46421;48.610;9.334;2023-12-29T12:37:26;2.00;;;0.60;;
60588;SDS011;46421;48.610;9.334;2023-12-29T12:39:53;1.25;;;0.52;;
60588;SDS011;46421;48.610;9.334;2023-12-29T12:42:19;2.88;;;0.60;;
60588;SDS011;46421;48.610;9.334;2023-12-29T12:44:49;1.02;;;0.60;;
60588;SDS011;46421;48.610;9.334;2023-12-29T12:47:32;1.70;;;0.50;;
60588;SDS011;46421;48.610;9.334;2023-12-29T12:49:59;1.45;;;0.52;;
60588;SDS011;46421;48.610;9.334;2023-12-29T12:52:25;1.73;;;0.52;;
60588;SDS011;46421;48.610;9.334;2023-12-29T12:54:50;1.70;;;0.65;;
60588;SDS011;46421;48.610;9.334;2023-12-29T12:57:19;1.75;;;0.50;;
60588;SDS011;46421;48.610;9.334;2023-12-29T12:59:45;1.65;;;0.52;;
60588;SDS011;46421;48.610;9.334;2023-12-29T13:02:11;1.00;;;0.35;;
60588;SDS011;46421;48.610;9.334;2023-12-29T13:04:39;1.90;;;0.77;;
60588;SDS011;46421;48.610;9.334;2023-12-29T13:07:05;1.08;;;0.40;;
60588;SDS011;46421;48.610;9.334;2023-12-29T13:09:31;0.82;;;0.50;;
60588;SDS011;46421;48.610;9.334;2023-12-29T13:12:09;1.30;;;0.63;;
60588;SDS011;46421;48.610;9.334;2023-12-29T13:14:37;1.45;;;0.50;;
60588;SDS011;46421;48.610;9.334;2023-12-29T13:17:10;2.20;;;0.70;;
60588;SDS011;46421;48.610;9.334;2023-12-29T13:19:36;1.75;;;0.70;;
60588;SDS011;46421;48.610;9.334;2023-12-29T13:22:05;1.42;;;0.73;;
60588;SDS011;46421;48.610;9.334;2023-12-29T13:24:31;2.35;;;0.65;;
60588;SDS011;46421;48.610;9.334;2023-12-29T13:26:58;1.15;;;0.40;;
60588;SDS011;46421;48.610;9.334;2023-12-29T13:29:27;1.90;;;0.60;;
60588;SDS011;46421;48.610;9.334;2023-12-29T13:31:54;0.60;;;0.30;;
60588;SDS011;46421;48.610;9.334;2023-12-29T13:34:28;3.17;;;0.70;;
60588;SDS011;46421;48.610;9.334;2023-12-29T13:37:00;1.23;;;0.60;;
60588;SDS011;46421;48.610;9.334;2023-12-29T13:39:34;2.00;;;0.73;;
60588;SDS011;46421;48.610;9.334;2023-12-29T13:42:02;2.63;;;0.52;;
60588;SDS011;46421;48.610;9.334;2023-12-29T13:44:29;1.85;;;0.70;;
60588;SDS011;46421;48.610;9.334;2023-12-29T13:46:56;2.75;;;0.70;;
60588;SDS011;46421;48.610;9.334;2023-12-29T13:49:22;2.10;;;0.85;;
60588;SDS011;46421;48.610;9.334;2023-12-29T13:51:47;1.05;;;0.55;;
60588;SDS011;46421;48.610;9.334;2023-12-29T13:54:13;1.75;;;0.70;;
60588;SDS011;46421;48.610;9.334;2023-12-29T13:56:38;0.60;;;0.55;;
60588;SDS011;46421;48.610;9.334;2023-12-29T13:59:04;2.05;;;0.68;;
60588;SDS011;46421;48.610;9.334;2023-12-29T14:01:35;1.63;;;0.65;;
60588;SDS011;46421;48.610;9.334;2023-12-29T14:04:02;1.40;;;0.50;;
60588;SDS011;46421;48.610;9.334;2023-12-29T14:06:29;2.25;;;0.73;;
60588;SDS011;46421;48.610;9.334;2023-12-29T14:08:57;0.75;;;0.50;;
60588;SDS011;46421;48.610;9.334;2023-12-29T14:11:22;0.73;;;0.50;;
60588;SDS011;46421;48.610;9.334;2023-12-29T14:13:48;1.25;;;0.52;;
60588;SDS011;46421;48.610;9.334;2023-12-29T14:16:13;1.20;;;0.50;;
60588;SDS011;46421;48.610;9.334;2023-12-29T14:18:48;1.38;;;0.50;;
60588;SDS011;46421;48.610;9.334;2023-12-29T14:21:24;1.00;;;0.50;;
60588;SDS011;46421;48.610;9.334;2023-12-29T14:26:40;1.48;;;0.60;;
60588;SDS011;46421;48.610;9.334;2023-12-29T14:29:19;2.63;;;0.65;;
60588;SDS011;46421;48.610;9.334;2023-12-29T14:31:45;1.05;;;0.45;;
60588;SDS011;46421;48.610;9.334;2023-12-29T14:34:11;1.73;;;0.70;;
60588;SDS011;46421;48.610;9.334;2023-12-29T14:36:38;2.75;;;0.70;;
60588;SDS011;46421;48.610;9.334;2023-12-29T14:39:06;3.25;;;0.60;;
60588;SDS011;46421;48.610;9.334;2023-12-29T14:41:32;0.95;;;0.40;;
60588;SDS011;46421;48.610;9.334;2023-12-29T14:43:57;2.10;;;0.70;;
60588;SDS011;46421;48.610;9.334;2023-12-29T14:46:23;1.40;;;0.50;;
60588;SDS011;46421;48.610;9.334;2023-12-29T14:48:48;1.67;;;0.68;;
60588;SDS011;46421;48.610;9.334;2023-12-29T14:51:14;1.23;;;0.50;;
60588;SDS011;46421;48.610;9.334;2023-12-29T14:53:44;1.63;;;0.63;;
60588;SDS011;46421;48.610;9.334;2023-12-29T14:56:10;2.42;;;0.63;;
60588;SDS011;46421;48.610;9.334;2023-12-29T14:58:36;1.73;;;0.80;;
60588;SDS011;46421;48.610;9.334;2023-12-29T15:01:01;2.95;;;0.80;;
60588;SDS011;46421;48.610;9.334;2023-12-29T15:03:28;1.42;;;0.75;;
60588;SDS011;46421;48.610;9.334;2023-12-29T15:05:53;2.28;;;0.85;;
60588;SDS011;46421;48.610;9.334;2023-12-29T15:08:19;1.58;;;0.80;;
60588;SDS011;46421;48.610;9.334;2023-12-29T15:10:44;2.03;;;0.60;;
60588;SDS011;46421;48.610;9.334;2023-12-29T15:13:10;1.58;;;0.60;;
60588;SDS011;46421;48.610;9.334;2023-12-29T15:15:35;1.67;;;0.70;;
60588;SDS011;46421;48.610;9.334;2023-12-29T15:18:01;2.17;;;0.82;;
60588;SDS011;46421;48.610;9.334;2023-12-29T15:20:27;1.25;;;0.60;;
60588;SDS011;46421;48.610;9.334;2023-12-29T15:22:53;1.63;;;0.47;;
60588;SDS011;46421;48.610;9.334;2023-12-29T15:25:20;2.92;;;0.82;;
60588;SDS011;46421;48.610;9.334;2023-12-29T15:27:48;2.33;;;0.82;;
60588;SDS011;46421;48.610;9.334;2023-12-29T15:30:13;2.28;;;0.80;;
60588;SDS011;46421;48.610;9.334;2023-12-29T15:32:38;2.95;;;0.90;;
60588;SDS011;46421;48.610;9.334;2023-12-29T15:35:04;3.17;;;0.90;;
60588;SDS011;46421;48.610;9.334;2023-12-29T15:37:29;1.98;;;0.85;;
60588;SDS011;46421;48.610;9.334;2023-12-29T15:39:55;1.63;;;0.60;;
60588;SDS011;46421;48.610;9.334;2023-12-29T15:42:20;2.33;;;0.80;;
60588;SDS011;46421;48.610;9.334;2023-12-29T15:44:46;2.80;;;1.00;;
60588;SDS011;46421;48.610;9.334;2023-12-29T15:47:11;2.25;;;0.77;;
60588;SDS011;46421;48.610;9.334;2023-12-29T15:49:37;1.83;;;0.80;;
60588;SDS011;46421;48.610;9.334;2023-12-29T15:52:02;4.65;;;1.05;;
60588;SDS011;46421;48.610;9.334;2023-12-29T15:54:28;3.75;;;0.88;;
60588;SDS011;46421;48.610;9.334;2023-12-29T15:56:53;2.75;;;0.90;;
60588;SDS011;46421;48.610;9.334;2023-12-29T15:59:19;2.80;;;1.00;;
60588;SDS011;46421;48.610;9.334;2023-12-29T16:01:44;3.77;;;0.90;;
60588;SDS011;46421;48.610;9.334;2023-12-29T16:04:10;1.92;;;0.60;;
60588;SDS011;46421;48.610;9.334;2023-12-29T16:06:35;3.78;;;0.93;;
60588;SDS011;46421;48.610;9.334;2023-12-29T16:11:29;2.40;;;0.85;;